Time;durP1;ratioP1;P1;durP2;ratioP2;P2;SDS_P1;SDS_P2;PMS_P1;PMS_P2;Temp;Humidity;BMP_temperature;BMP_pressure;BME280_temperature;BME280_humidity;BME280_pressure;Samples;Min_cycle;Max_cycle;Signal;HPM_P1;HPM_P2
2023/01/22 00:00:41;;;;;;;;;;;0.40;99.90;;;;;;5082441;28;19920;-58
2023/01/22 00:03:07;;;;;;;;;;;0.50;99.90;;;;;;5086221;28;19943;-58
2023/01/22 00:05:32;;;;;;;;;;;0.60;99.90;;;;;;5101567;28;19981;-58
2023/01/22 00:07:58;;;;;;;;;;;0.60;99.90;;;;;;5104734;28;19920;-58
2023/01/22 00:10:23;;;;;;;;;;;0.70;99.90;;;;;;5083209;28;19931;-58
2023/01/22 00:12:49;;;;;;;;;;;0.60;99.90;;;;;;5085934;28;19930;-58
2023/01/22 00:15:14;;;;;;;;;;;0.70;99.90;;;;;;5102818;28;19924;-58
2023/01/22 00:17:40;;;;;;;;;;;0.60;99.90;;;;;;5102973;28;20011;-58
2023/01/22 00:20:06;;;;;;;;;;;0.70;99.90;;;;;;5104147;28;19920;-58
2023/01/22 00:22:31;;;;;;;;;;;0.60;99.90;;;;;;5101484;28;19924;-58
2023/01/22 00:24:57;;;;;;;;;;;0.60;99.90;;;;;;5086122;28;20337;-58
2023/01/22 00:27:22;;;;;;;;;;;0.50;99.90;;;;;;5101205;28;19946;-58
2023/01/22 00:29:48;;;;;;;;;;;0.60;99.90;;;;;;5104315;28;20352;-58
2023/01/22 00:32:13;;;;;;;;;;;0.50;99.90;;;;;;5101927;28;19920;-56
2023/01/22 00:34:39;;;;;;;;;;;0.70;99.90;;;;;;5103002;28;20313;-58
2023/01/22 00:37:04;;;;;;;;;;;0.50;99.90;;;;;;5103770;28;19986;-58
2023/01/22 00:39:30;;;;;;;;;;;0.60;99.90;;;;;;5101254;28;19963;-55
2023/01/22 00:41:56;;;;;;;;;;;0.50;99.90;;;;;;5103497;28;20401;-58
2023/01/22 00:44:21;;;;;;;;;;;0.60;99.90;;;;;;5082867;28;19923;-58
2023/01/22 00:46:47;;;;;;;;;;;0.40;99.90;;;;;;5103669;28;19920;-59
2023/01/22 00:49:13;;;;;;;;;;;0.30;99.90;;;;;;5101108;28;19994;-57
2023/01/22 00:51:38;;;;;;;;;;;0.40;99.90;;;;;;5103035;28;19924;-58
2023/01/22 00:54:04;;;;;;;;;;;0.30;99.90;;;;;;5094582;28;19959;-57
2023/01/22 00:56:30;;;;;;;;;;;0.10;99.90;;;;;;5081109;28;19970;-58
2023/01/22 00:58:55;;;;;;;;;;;0.30;99.90;;;;;;5064669;28;19927;-57
2023/01/22 01:01:21;;;;;;;;;;;0.30;99.90;;;;;;5080554;28;19924;-58
2023/01/22 01:03:46;;;;;;;;;;;0.30;99.90;;;;;;5083040;28;19926;-58
2023/01/22 01:06:17;;;;;;;;;;;0.20;99.90;;;;;;5080667;28;20005;-58
2023/01/22 01:08:42;;;;;;;;;;;0.10;99.90;;;;;;5082816;28;19921;-58
2023/01/22 01:11:13;;;;;;;;;;;0.40;99.90;;;;;;5082044;28;19924;-57
2023/01/22 01:13:40;;;;;;;;;;;0.50;99.90;;;;;;5080732;28;20023;-58
2023/01/22 01:16:07;;;;;;;;;;;0.40;99.90;;;;;;5083055;28;19920;-58
2023/01/22 01:18:34;;;;;;;;;;;0.80;99.90;;;;;;5080360;28;19920;-57
2023/01/22 01:21:00;;;;;;;;;;;0.60;99.90;;;;;;5082755;28;19986;-58
2023/01/22 01:23:26;;;;;;;;;;;0.50;99.90;;;;;;5080490;28;19992;-57
2023/01/22 01:25:52;;;;;;;;;;;0.60;99.90;;;;;;5082307;28;20050;-58
2023/01/22 01:28:18;;;;;;;;;;;0.40;99.90;;;;;;5082010;28;19921;-58
2023/01/22 01:30:44;;;;;;;;;;;0.40;99.90;;;;;;5080479;28;19916;-58
2023/01/22 01:33:09;;;;;;;;;;;0.60;99.90;;;;;;5082569;28;19924;-58
2023/01/22 01:35:35;;;;;;;;;;;0.60;99.90;;;;;;5079790;28;20015;-58
2023/01/22 01:38:00;;;;;;;;;;;0.40;99.90;;;;;;5064336;28;19931;-58
2023/01/22 01:40:26;;;;;;;;;;;0.50;99.90;;;;;;5080081;28;19969;-58
2023/01/22 01:42:52;;;;;;;;;;;0.40;99.90;;;;;;5082126;28;19920;-58
2023/01/22 01:45:19;;;;;;;;;;;0.40;99.90;;;;;;5063343;28;19966;-57
2023/01/22 01:47:44;;;;;;;;;;;0.40;99.90;;;;;;5080637;28;19916;-58
2023/01/22 01:50:10;;;;;;;;;;;0.30;99.90;;;;;;5064681;28;20378;-58
2023/01/22 01:52:36;;;;;;;;;;;0.40;99.90;;;;;;5079091;28;19924;-57
2023/01/22 01:55:02;;;;;;;;;;;0.20;99.90;;;;;;5082355;28;19956;-57
2023/01/22 01:57:30;;;;;;;;;;;0.40;99.90;;;;;;5079673;28;20030;-58
2023/01/22 01:59:56;;;;;;;;;;;0.40;99.90;;;;;;5081817;28;19966;-57
2023/01/22 02:02:22;;;;;;;;;;;0.30;99.90;;;;;;5080728;28;20003;-57
2023/01/22 02:04:48;;;;;;;;;;;0.20;99.90;;;;;;5080641;28;19935;-57
2023/01/22 02:07:14;;;;;;;;;;;0.30;99.90;;;;;;5082036;28;19995;-57
2023/01/22 02:09:39;;;;;;;;;;;0.40;99.90;;;;;;5078686;28;19920;-57
2023/01/22 02:12:05;;;;;;;;;;;0.50;99.90;;;;;;5083638;28;20052;-58
2023/01/22 02:14:36;;;;;;;;;;;0.50;99.90;;;;;;5099361;28;19935;-58
2023/01/22 02:17:06;;;;;;;;;;;0.50;99.90;;;;;;5101837;28;19959;-57
2023/01/22 02:19:32;;;;;;;;;;;0.60;99.90;;;;;;5100810;28;20364;-56
2023/01/22 02:21:57;;;;;;;;;;;0.50;99.90;;;;;;5100406;28;19977;-58
2023/01/22 02:24:23;;;;;;;;;;;0.40;99.90;;;;;;5102132;28;19938;-57
2023/01/22 02:26:49;;;;;;;;;;;0.60;99.90;;;;;;5081029;28;19986;-58
2023/01/22 02:29:14;;;;;;;;;;;0.70;99.90;;;;;;5102071;28;19920;-58
2023/01/22 02:31:40;;;;;;;;;;;0.80;99.90;;;;;;5098860;28;19924;-58
2023/01/22 02:34:07;;;;;;;;;;;0.80;99.90;;;;;;5101605;28;19924;-58
2023/01/22 02:36:34;;;;;;;;;;;0.80;99.90;;;;;;5100231;28;19924;-58
2023/01/22 02:38:59;;;;;;;;;;;0.80;99.90;;;;;;5100371;28;19920;-59
2023/01/22 02:41:25;;;;;;;;;;;0.60;99.90;;;;;;5083470;28;19931;-58
2023/01/22 02:43:51;;;;;;;;;;;0.80;99.90;;;;;;5080212;28;19927;-58
2023/01/22 02:46:17;;;;;;;;;;;0.80;99.90;;;;;;5083632;28;19923;-58
2023/01/22 02:48:42;;;;;;;;;;;0.90;99.90;;;;;;5098507;28;19924;-57
2023/01/22 02:51:08;;;;;;;;;;;0.90;99.90;;;;;;5101349;28;19923;-57
2023/01/22 02:53:33;;;;;;;;;;;0.80;99.90;;;;;;5095210;28;19946;-57
2023/01/22 02:55:59;;;;;;;;;;;0.90;99.90;;;;;;5080200;28;19962;-57
2023/01/22 02:58:25;;;;;;;;;;;0.90;99.90;;;;;;5080824;28;20103;-57
2023/01/22 03:00:50;;;;;;;;;;;0.90;99.90;;;;;;5060609;28;20017;-57
2023/01/22 03:03:16;;;;;;;;;;;1.20;99.90;;;;;;5081106;28;19940;-57
2023/01/22 03:05:48;;;;;;;;;;;1.00;99.90;;;;;;5077972;28;19975;-58
2023/01/22 03:08:14;;;;;;;;;;;1.20;99.90;;;;;;5081203;28;19970;-58
2023/01/22 03:10:39;;;;;;;;;;;1.10;99.90;;;;;;5078886;28;19920;-57
2023/01/22 03:21:19;;;;;;;;;;;0.90;99.90;;;;;;5100937;28;20014;-58
2023/01/22 03:23:51;;;;;;;;;;;1.10;99.90;;;;;;5099628;28;19931;-56
2023/01/22 03:26:18;;;;;;;;;;;1.10;99.90;;;;;;5099331;28;19926;-58
2023/01/22 03:28:44;;;;;;;;;;;0.90;99.90;;;;;;5100995;28;19939;-58
2023/01/22 03:31:10;;;;;;;;;;;1.00;99.90;;;;;;5098018;28;19935;-58
2023/01/22 03:33:36;;;;;;;;;;;1.00;99.90;;;;;;5101167;28;19920;-58
2023/01/22 03:36:03;;;;;;;;;;;0.90;99.90;;;;;;5098189;28;19927;-58
2023/01/22 03:38:29;;;;;;;;;;;0.90;99.90;;;;;;5100719;28;19924;-58
2023/01/22 03:41:14;;;;;;;;;;;1.10;99.90;;;;;;5099330;28;19970;-58
2023/01/22 03:43:40;;;;;;;;;;;0.80;99.90;;;;;;5097319;28;19951;-57
2023/01/22 03:46:10;;;;;;;;;;;0.90;99.90;;;;;;5100721;28;19924;-58
2023/01/22 03:48:36;;;;;;;;;;;0.90;99.90;;;;;;5097970;28;19920;-57
2023/01/22 03:51:12;;;;;;;;;;;0.90;99.90;;;;;;5100987;28;20007;-58
2023/01/22 03:53:38;;;;;;;;;;;0.80;99.90;;;;;;5098411;28;20441;-57
2023/01/22 03:56:05;;;;;;;;;;;1.00;99.90;;;;;;5099689;28;19920;-58
2023/01/22 03:58:31;;;;;;;;;;;0.80;99.90;;;;;;5100635;28;19999;-57
2023/01/22 04:00:59;;;;;;;;;;;0.80;99.90;;;;;;5080169;28;19924;-57
2023/01/22 04:03:26;;;;;;;;;;;1.00;99.90;;;;;;5100523;28;19941;-57
2023/01/22 04:05:52;;;;;;;;;;;0.80;99.90;;;;;;5097632;28;19945;-56
2023/01/22 04:08:18;;;;;;;;;;;1.00;99.90;;;;;;5082527;28;19930;-57
2023/01/22 04:10:44;;;;;;;;;;;1.00;99.90;;;;;;5098781;28;20003;-56
2023/01/22 04:13:09;;;;;;;;;;;0.90;99.90;;;;;;5099183;28;19927;-58
2023/01/22 04:15:35;;;;;;;;;;;0.90;99.90;;;;;;5082423;28;19987;-57
2023/01/22 04:18:00;;;;;;;;;;;1.10;99.90;;;;;;5097763;28;19923;-57
2023/01/22 04:20:26;;;;;;;;;;;0.90;99.90;;;;;;5100314;28;19924;-58
2023/01/22 04:22:51;;;;;;;;;;;0.90;99.90;;;;;;5097690;28;19942;-57
2023/01/22 04:25:17;;;;;;;;;;;1.10;99.90;;;;;;5100419;28;19966;-58
2023/01/22 04:27:45;;;;;;;;;;;1.10;99.90;;;;;;5098025;28;19926;-56
2023/01/22 04:30:11;;;;;;;;;;;1.10;99.90;;;;;;5099674;28;19934;-58
2023/01/22 04:32:36;;;;;;;;;;;1.10;99.90;;;;;;5099778;28;19959;-56
2023/01/22 04:35:03;;;;;;;;;;;0.90;99.90;;;;;;5100913;28;19982;-58
2023/01/22 04:37:29;;;;;;;;;;;1.10;99.90;;;;;;5103981;28;20241;-57
2023/01/22 04:39:54;;;;;;;;;;;1.00;99.90;;;;;;5101283;28;19930;-58
2023/01/22 04:42:20;;;;;;;;;;;1.20;99.90;;;;;;5085484;28;20360;-55
2023/01/22 04:44:45;;;;;;;;;;;1.00;99.90;;;;;;5101537;28;19920;-57
2023/01/22 04:47:11;;;;;;;;;;;1.00;99.90;;;;;;5103237;28;19974;-57
2023/01/22 04:49:36;;;;;;;;;;;1.10;99.90;;;;;;5102620;28;19931;-57
2023/01/22 04:52:02;;;;;;;;;;;1.10;99.90;;;;;;5101893;28;19923;-57
2023/01/22 04:54:27;;;;;;;;;;;1.10;99.90;;;;;;5092161;28;19983;-57
2023/01/22 04:56:53;;;;;;;;;;;1.10;99.90;;;;;;5080656;28;19920;-58
2023/01/22 04:59:18;;;;;;;;;;;1.00;99.90;;;;;;5083109;28;19944;-58
2023/01/22 05:01:44;;;;;;;;;;;1.10;99.90;;;;;;5080882;28;20134;-57
2023/01/22 05:04:10;;;;;;;;;;;1.30;99.90;;;;;;5082591;28;19920;-57
2023/01/22 05:06:35;;;;;;;;;;;1.30;99.90;;;;;;5082124;28;19921;-57
2023/01/22 05:09:01;;;;;;;;;;;1.10;99.90;;;;;;5081559;28;19916;-57
2023/01/22 05:11:26;;;;;;;;;;;1.30;99.90;;;;;;5083112;28;20354;-57
2023/01/22 05:13:53;;;;;;;;;;;1.10;99.90;;;;;;5080183;28;19920;-57
2023/01/22 05:16:18;;;;;;;;;;;1.20;99.90;;;;;;5064713;28;19985;-57
2023/01/22 05:18:44;;;;;;;;;;;1.30;99.90;;;;;;5080167;28;19945;-57
2023/01/22 05:21:10;;;;;;;;;;;1.20;99.90;;;;;;5082627;28;19985;-57
2023/01/22 05:23:35;;;;;;;;;;;1.30;99.90;;;;;;5080863;28;19927;-56
2023/01/22 05:26:01;;;;;;;;;;;1.20;99.90;;;;;;5081550;28;20003;-56
2023/01/22 05:28:26;;;;;;;;;;;1.20;99.90;;;;;;5082890;28;19946;-57
2023/01/22 05:30:52;;;;;;;;;;;1.40;99.90;;;;;;5079866;28;19920;-57
2023/01/22 05:33:17;;;;;;;;;;;1.20;99.90;;;;;;5082762;28;19931;-58
2023/01/22 05:35:43;;;;;;;;;;;1.40;99.90;;;;;;5079611;28;19924;-58
2023/01/22 05:38:08;;;;;;;;;;;1.30;99.90;;;;;;5082508;28;19965;-58
2023/01/22 05:40:35;;;;;;;;;;;1.30;99.90;;;;;;5080381;28;20440;-57
2023/01/22 05:43:01;;;;;;;;;;;1.40;99.90;;;;;;5081339;28;19920;-58
2023/01/22 05:45:27;;;;;;;;;;;1.70;99.90;;;;;;5081878;28;20403;-57
2023/01/22 05:47:52;;;;;;;;;;;1.30;99.90;;;;;;5062072;28;19928;-57
2023/01/22 05:50:18;;;;;;;;;;;1.30;99.90;;;;;;5082626;28;19931;-58
2023/01/22 05:52:44;;;;;;;;;;;1.40;99.90;;;;;;5078957;28;20432;-57
2023/01/22 05:55:09;;;;;;;;;;;1.20;99.90;;;;;;5099523;28;19924;-57
2023/01/22 05:57:35;;;;;;;;;;;1.20;99.90;;;;;;5099996;28;19920;-57
2023/01/22 06:00:02;;;;;;;;;;;1.40;99.90;;;;;;5101823;28;19920;-57
2023/01/22 06:02:28;;;;;;;;;;;1.40;99.90;;;;;;5101713;28;19986;-58
2023/01/22 06:04:53;;;;;;;;;;;1.80;99.90;;;;;;5100050;28;19920;-57
2023/01/22 06:07:19;;;;;;;;;;;1.30;99.90;;;;;;5101817;28;20191;-58
2023/01/22 06:09:44;;;;;;;;;;;1.30;99.90;;;;;;5099084;28;19985;-58
2023/01/22 06:12:10;;;;;;;;;;;1.40;99.90;;;;;;5102146;28;19996;-58
2023/01/22 06:14:35;;;;;;;;;;;1.30;99.90;;;;;;5099314;28;20484;-58
2023/01/22 06:17:01;;;;;;;;;;;1.20;99.90;;;;;;5102022;28;19919;-58
2023/01/22 06:19:27;;;;;;;;;;;1.40;99.90;;;;;;5100918;28;19969;-57
2023/01/22 06:21:53;;;;;;;;;;;1.70;99.90;;;;;;5100389;28;20350;-58
2023/01/22 06:24:18;;;;;;;;;;;1.30;99.90;;;;;;5102002;28;19920;-58
2023/01/22 06:26:44;;;;;;;;;;;1.20;99.90;;;;;;5098962;28;19920;-58
2023/01/22 06:29:09;;;;;;;;;;;1.20;99.90;;;;;;5101810;28;20007;-57
2023/01/22 06:31:35;;;;;;;;;;;1.20;99.90;;;;;;5098958;28;19965;-58
2023/01/22 06:34:00;;;;;;;;;;;1.30;99.90;;;;;;5101924;28;19927;-58
2023/01/22 06:36:26;;;;;;;;;;;1.20;99.90;;;;;;5099832;28;19946;-58
2023/01/22 06:38:52;;;;;;;;;;;1.20;99.90;;;;;;5100661;28;19920;-57
2023/01/22 06:41:17;;;;;;;;;;;1.40;99.90;;;;;;5101521;28;19930;-58
2023/01/22 06:43:43;;;;;;;;;;;1.40;99.90;;;;;;5098630;28;20291;-58
2023/01/22 06:46:09;;;;;;;;;;;1.20;99.90;;;;;;5083627;28;19926;-58
2023/01/22 06:48:34;;;;;;;;;;;1.30;99.90;;;;;;5098657;28;19920;-58
2023/01/22 06:51:00;;;;;;;;;;;1.30;99.90;;;;;;5101750;28;19927;-58
2023/01/22 06:53:26;;;;;;;;;;;1.30;99.90;;;;;;5096698;28;19985;-57
2023/01/22 06:55:51;;;;;;;;;;;1.20;99.90;;;;;;5080325;28;20322;-58
2023/01/22 06:58:17;;;;;;;;;;;1.40;99.90;;;;;;5088288;28;19944;-58
2023/01/22 07:00:42;;;;;;;;;;;1.40;99.90;;;;;;5080487;28;19931;-58
2023/01/22 07:03:08;;;;;;;;;;;1.20;99.90;;;;;;5101298;28;20367;-57
2023/01/22 07:05:34;;;;;;;;;;;1.10;99.90;;;;;;5098181;28;19924;-58
2023/01/22 07:07:59;;;;;;;;;;;1.20;99.90;;;;;;5101705;28;19974;-57
2023/01/22 07:10:25;;;;;;;;;;;1.20;99.90;;;;;;5098697;28;20506;-57
2023/01/22 07:12:54;;;;;;;;;;;1.10;99.90;;;;;;5100472;28;19920;-57
2023/01/22 07:15:20;;;;;;;;;;;1.30;99.90;;;;;;5100594;28;19931;-57
2023/01/22 07:17:50;;;;;;;;;;;1.30;99.90;;;;;;5098825;28;19923;-58
2023/01/22 07:20:15;;;;;;;;;;;1.20;99.90;;;;;;5100902;28;19928;-57
2023/01/22 07:22:41;;;;;;;;;;;1.20;99.90;;;;;;5098204;28;19967;-58
2023/01/22 07:25:07;;;;;;;;;;;1.20;99.90;;;;;;5101108;28;19971;-58
2023/01/22 07:27:33;;;;;;;;;;;1.30;99.90;;;;;;5098412;28;19970;-57
2023/01/22 07:29:59;;;;;;;;;;;1.40;99.90;;;;;;5082651;28;19942;-58
2023/01/22 07:32:25;;;;;;;;;;;1.10;99.90;;;;;;5100192;28;19924;-57
2023/01/22 07:34:50;;;;;;;;;;;1.10;99.90;;;;;;5098989;28;19987;-57
2023/01/22 07:37:16;;;;;;;;;;;1.10;99.90;;;;;;5077807;28;20003;-57
2023/01/22 07:39:41;;;;;;;;;;;1.20;99.90;;;;;;5094349;28;19931;-57
2023/01/22 07:42:07;;;;;;;;;;;1.10;99.90;;;;;;5097019;28;19927;-58
2023/01/22 07:44:33;;;;;;;;;;;1.20;99.90;;;;;;5094703;28;19966;-58
2023/01/22 07:46:58;;;;;;;;;;;1.20;99.90;;;;;;5096904;28;20358;-58
2023/01/22 07:49:24;;;;;;;;;;;1.30;99.90;;;;;;5095640;28;19920;-58
2023/01/22 07:51:49;;;;;;;;;;;1.20;99.90;;;;;;5091355;28;19924;-59
2023/01/22 07:54:15;;;;;;;;;;;1.20;99.90;;;;;;5086915;28;19924;-58
2023/01/22 07:56:40;;;;;;;;;;;1.10;99.90;;;;;;5085606;28;19996;-58
2023/01/22 07:59:06;;;;;;;;;;;1.30;99.90;;;;;;5084537;28;20199;-57
2023/01/22 08:01:31;;;;;;;;;;;1.20;99.90;;;;;;5081834;28;20475;-58
2023/01/22 08:03:57;;;;;;;;;;;1.20;99.90;;;;;;5087158;28;19935;-57
2023/01/22 08:06:23;;;;;;;;;;;1.30;99.90;;;;;;5083552;28;19943;-58
2023/01/22 08:08:48;;;;;;;;;;;1.30;99.90;;;;;;5076855;28;19931;-58
2023/01/22 08:11:14;;;;;;;;;;;1.30;99.90;;;;;;5065236;28;19935;-57
2023/01/22 08:13:40;;;;;;;;;;;1.10;99.90;;;;;;5091704;28;19924;-58
2023/01/22 08:16:05;;;;;;;;;;;1.20;99.90;;;;;;5100728;28;19963;-58
2023/01/22 08:18:31;;;;;;;;;;;1.30;99.90;;;;;;5097655;28;19939;-58
2023/01/22 08:21:00;;;;;;;;;;;1.10;99.90;;;;;;5100389;28;20436;-57
2023/01/22 08:23:26;;;;;;;;;;;1.30;99.90;;;;;;5097953;28;19960;-57
2023/01/22 08:25:51;;;;;;;;;;;1.20;99.90;;;;;;5099547;28;19927;-58
2023/01/22 08:28:17;;;;;;;;;;;1.20;99.90;;;;;;5082111;28;19920;-57
2023/01/22 08:30:42;;;;;;;;;;;1.20;99.90;;;;;;5097694;28;19919;-58
2023/01/22 08:33:09;;;;;;;;;;;1.10;99.90;;;;;;5082008;28;19919;-57
2023/01/22 08:35:36;;;;;;;;;;;1.00;99.90;;;;;;5097389;28;20376;-57
2023/01/22 08:38:02;;;;;;;;;;;1.00;99.90;;;;;;5100272;28;19920;-57
2023/01/22 08:40:28;;;;;;;;;;;1.10;99.90;;;;;;5098023;28;19935;-56
2023/01/22 08:42:53;;;;;;;;;;;1.00;99.90;;;;;;5099115;28;19923;-57
2023/01/22 08:45:19;;;;;;;;;;;1.10;99.90;;;;;;5099751;28;19920;-57
2023/01/22 08:47:44;;;;;;;;;;;1.30;99.90;;;;;;5097471;28;19926;-57
2023/01/22 08:50:10;;;;;;;;;;;1.20;99.90;;;;;;5100217;28;19928;-57
2023/01/22 08:52:36;;;;;;;;;;;1.00;99.90;;;;;;5097089;28;19924;-57
2023/01/22 08:55:01;;;;;;;;;;;1.30;99.90;;;;;;5083692;28;19947;-58
2023/01/22 08:57:27;;;;;;;;;;;1.30;99.90;;;;;;5076803;28;19924;-57
2023/01/22 08:59:53;;;;;;;;;;;1.10;99.90;;;;;;5078861;28;20017;-55
2023/01/22 09:02:18;;;;;;;;;;;1.30;99.90;;;;;;5060823;28;20368;-58
2023/01/22 09:04:44;;;;;;;;;;;1.20;99.90;;;;;;5077735;28;19955;-58
2023/01/22 09:07:09;;;;;;;;;;;1.30;99.90;;;;;;5079586;28;19924;-57
2023/01/22 09:09:35;;;;;;;;;;;1.10;99.90;;;;;;5076579;28;19931;-58
2023/01/22 09:12:01;;;;;;;;;;;1.00;99.90;;;;;;5093012;28;20400;-58
2023/01/22 09:14:26;;;;;;;;;;;1.00;99.90;;;;;;5096542;28;19959;-58
2023/01/22 09:16:52;;;;;;;;;;;1.20;99.90;;;;;;5099276;28;19931;-58
2023/01/22 09:19:18;;;;;;;;;;;1.20;99.90;;;;;;5097608;28;19920;-57
2023/01/22 09:21:43;;;;;;;;;;;1.00;99.90;;;;;;5097724;28;19959;-57
2023/01/22 09:24:09;;;;;;;;;;;1.10;99.90;;;;;;5080506;28;19981;-57
2023/01/22 09:26:38;;;;;;;;;;;1.10;99.90;;;;;;5096803;28;19924;-58
2023/01/22 09:29:04;;;;;;;;;;;1.00;99.90;;;;;;5099210;28;19980;-58
2023/01/22 09:31:31;;;;;;;;;;;1.10;99.90;;;;;;5096644;28;19923;-57
2023/01/22 09:33:56;;;;;;;;;;;1.20;99.90;;;;;;5092420;28;19924;-57
2023/01/22 09:36:22;;;;;;;;;;;1.10;99.90;;;;;;5087686;28;19939;-57
2023/01/22 09:38:47;;;;;;;;;;;1.00;99.90;;;;;;5068299;28;19966;-58
2023/01/22 09:41:19;;;;;;;;;;;1.00;99.90;;;;;;5088805;28;19934;-55
2023/01/22 09:43:48;;;;;;;;;;;1.10;99.90;;;;;;5086460;28;19924;-58
2023/01/22 09:46:20;;;;;;;;;;;0.90;99.90;;;;;;5088786;28;19924;-58
2023/01/22 09:48:49;;;;;;;;;;;1.10;99.90;;;;;;5084247;28;20015;-58
2023/01/22 09:51:15;;;;;;;;;;;0.90;99.90;;;;;;5088329;28;20023;-58
2023/01/22 09:53:41;;;;;;;;;;;1.10;99.90;;;;;;5087522;28;20432;-55
2023/01/22 09:56:13;;;;;;;;;;;1.10;99.90;;;;;;5087626;28;19924;-57
2023/01/22 09:58:39;;;;;;;;;;;1.20;99.90;;;;;;5078470;28;19964;-57
2023/01/22 10:01:06;;;;;;;;;;;1.00;99.90;;;;;;5057176;28;20285;-57
2023/01/22 10:03:36;;;;;;;;;;;1.20;99.90;;;;;;5078326;28;19926;-58
2023/01/22 10:06:05;;;;;;;;;;;1.20;99.90;;;;;;5075903;28;19924;-58
2023/01/22 10:08:32;;;;;;;;;;;1.30;99.90;;;;;;5077573;28;19925;-57
2023/01/22 10:10:59;;;;;;;;;;;1.30;99.90;;;;;;5077850;28;19924;-56
2023/01/22 10:13:33;;;;;;;;;;;1.40;99.90;;;;;;5075339;28;19924;-57
2023/01/22 10:15:58;;;;;;;;;;;1.50;99.90;;;;;;5078290;28;19959;-58
2023/01/22 10:18:36;;;;;;;;;;;1.50;99.90;;;;;;5057421;28;19925;-57
2023/01/22 10:21:09;;;;;;;;;;;1.40;99.90;;;;;;5078250;28;19920;-57
2023/01/22 10:23:35;;;;;;;;;;;1.50;99.90;;;;;;5063308;28;19923;-57
2023/01/22 10:26:13;;;;;;;;;;;1.60;99.90;;;;;;5095695;28;20325;-57
2023/01/22 10:28:42;;;;;;;;;;;1.50;99.90;;;;;;5098294;28;19920;-57
2023/01/22 10:31:18;;;;;;;;;;;1.50;99.90;;;;;;5094398;28;19923;-56
2023/01/22 10:33:44;;;;;;;;;;;1.70;99.90;;;;;;5098254;28;19924;-58
2023/01/22 10:36:12;;;;;;;;;;;1.50;99.90;;;;;;5095362;28;19926;-57
2023/01/22 10:38:38;;;;;;;;;;;1.70;99.90;;;;;;5096566;28;19967;-57
2023/01/22 10:41:03;;;;;;;;;;;1.60;99.90;;;;;;5092758;28;20391;-58
2023/01/22 10:43:31;;;;;;;;;;;1.70;99.90;;;;;;5083388;28;19956;-58
2023/01/22 10:45:58;;;;;;;;;;;1.70;99.90;;;;;;5085475;28;19951;-57
2023/01/22 10:48:24;;;;;;;;;;;1.90;99.90;;;;;;5084083;28;19924;-58
2023/01/22 10:51:11;;;;;;;;;;;2.00;99.90;;;;;;5086645;28;19924;-58
2023/01/22 10:53:38;;;;;;;;;;;1.90;99.90;;;;;;5084869;28;19999;-58
2023/01/22 10:56:06;;;;;;;;;;;1.90;99.90;;;;;;5083947;28;19931;-58
2023/01/22 10:58:36;;;;;;;;;;;2.00;99.90;;;;;;5086208;28;19919;-58
2023/01/22 11:01:22;;;;;;;;;;;2.10;99.90;;;;;;5084107;28;19965;-58
2023/01/22 11:03:48;;;;;;;;;;;2.10;99.90;;;;;;5086067;28;19924;-58
2023/01/22 11:06:16;;;;;;;;;;;2.20;99.90;;;;;;5083832;28;20035;-58
2023/01/22 11:08:51;;;;;;;;;;;2.00;99.90;;;;;;5086266;28;19924;-59
2023/01/22 11:11:19;;;;;;;;;;;2.20;99.90;;;;;;5068807;28;19924;-58
2023/01/22 11:13:49;;;;;;;;;;;2.10;99.90;;;;;;5087222;28;20369;-59
2023/01/22 11:16:19;;;;;;;;;;;2.30;99.90;;;;;;5097348;28;19924;-58
2023/01/22 11:18:54;;;;;;;;;;;2.30;99.90;;;;;;5094745;28;20297;-57
2023/01/22 11:21:36;;;;;;;;;;;2.20;99.90;;;;;;5085652;28;19920;-57
2023/01/22 11:24:17;;;;;;;;;;;2.40;99.90;;;;;;5085968;28;19964;-57
2023/01/22 11:27:01;;;;;;;;;;;2.40;99.90;;;;;;5086525;28;19923;-57
2023/01/22 11:29:47;;;;;;;;;;;2.40;99.90;;;;;;5090535;28;19924;-58
2023/01/22 11:32:18;;;;;;;;;;;2.50;99.90;;;;;;5085537;28;19925;-58
2023/01/22 11:34:59;;;;;;;;;;;2.40;99.90;;;;;;5065660;28;19928;-58
2023/01/22 11:37:37;;;;;;;;;;;2.40;99.90;;;;;;5084992;28;19924;-58
2023/01/22 11:40:02;;;;;;;;;;;2.50;99.90;;;;;;5083233;28;19924;-58
2023/01/22 11:42:43;;;;;;;;;;;2.50;99.90;;;;;;5085147;28;19930;-58
2023/01/22 11:45:09;;;;;;;;;;;2.70;99.90;;;;;;5069931;28;19928;-57
2023/01/22 11:47:43;;;;;;;;;;;2.70;99.90;;;;;;5088428;28;19920;-58
2023/01/22 11:50:24;;;;;;;;;;;2.50;99.90;;;;;;5090987;28;19924;-58
2023/01/22 11:53:01;;;;;;;;;;;2.80;99.90;;;;;;5069491;28;20467;-58
2023/01/22 11:56:30;;;;;;;9.73;4.85;;;2.70;99.90;;;;;;5118153;27;2017676;-52
2023/01/22 11:59:05;;;;;;;8.85;5.05;;;2.50;99.90;;;;;;5150389;27;20154;-51
2023/01/22 12:01:52;;;;;;;8.80;4.70;;;2.80;99.90;;;;;;5150399;27;20071;-51
2023/01/22 12:04:36;;;;;;;11.45;5.38;;;2.80;99.90;;;;;;5150320;27;20050;-52
2023/01/22 12:07:25;;;;;;;10.05;5.32;;;2.60;99.90;;;;;;5154547;27;20050;-51
2023/01/22 12:10:14;;;;;;;11.40;6.00;;;2.80;99.90;;;;;;5161135;27;20042;-48
2023/01/22 12:13:10;;;;;;;13.80;6.80;;;2.70;99.90;;;;;;5130283;27;20042;-50
2023/01/22 12:15:50;;;;;;;9.75;5.90;;;3.00;99.90;;;;;;5170797;27;20042;-49
2023/01/22 12:18:39;;;;;;;8.43;5.43;;;2.80;99.90;;;;;;5171013;27;20072;-52
2023/01/22 12:21:15;;;;;;;11.35;5.47;;;3.00;99.90;;;;;;5171498;27;20091;-50
2023/01/22 12:23:54;;;;;;;12.60;5.40;;;2.80;99.90;;;;;;5171286;27;20099;-49
2023/01/22 12:26:25;;;;;;;11.70;5.85;;;2.90;99.90;;;;;;5171274;27;20117;-52
2023/01/22 12:28:59;;;;;;;10.85;5.43;;;2.80;99.90;;;;;;5171542;27;20048;-50
2023/01/22 12:31:41;;;;;;;10.90;5.28;;;2.70;99.90;;;;;;5171096;27;20479;-51
2023/01/22 12:34:27;;;;;;;11.20;6.03;;;2.80;99.90;;;;;;5171247;27;20095;-50
2023/01/22 12:36:54;;;;;;;10.45;5.40;;;2.90;99.90;;;;;;5171341;27;20087;-49
2023/01/22 12:39:31;;;;;;;10.07;5.45;;;2.70;99.90;;;;;;5171107;27;20148;-49
2023/01/22 12:42:14;;;;;;;13.68;7.03;;;2.80;99.90;;;;;;5152597;27;20066;-48
2023/01/22 12:44:52;;;;;;;13.77;7.10;;;2.90;99.90;;;;;;5170758;27;20038;-51
2023/01/22 12:47:30;;;;;;;13.70;6.82;;;2.90;99.90;;;;;;5171126;27;20130;-48
2023/01/22 12:49:55;;;;;;;14.07;6.20;;;2.80;99.90;;;;;;5170771;27;20042;-53
2023/01/22 12:52:36;;;;;;;12.18;6.43;;;2.90;99.90;;;;;;5171059;27;20065;-51
2023/01/22 12:55:34;;;;;;;12.80;6.03;;;3.00;99.90;;;;;;5153814;27;20534;-53
2023/01/22 12:58:00;;;;;;;12.05;6.88;;;3.00;99.90;;;;;;5150312;27;20395;-49
2023/01/22 13:00:30;;;;;;;14.02;6.18;;;2.90;99.90;;;;;;5149904;27;20455;-52
2023/01/22 13:02:57;;;;;;;14.13;5.80;;;2.80;99.90;;;;;;5149828;27;20039;-52
2023/01/22 13:05:25;;;;;;;12.38;6.60;;;2.90;99.90;;;;;;5148488;27;20118;-51
2023/01/22 13:08:39;;;;;;;11.35;5.90;;;2.80;99.90;;;;;;5135865;27;20043;-48
2023/01/22 13:11:25;;;;;;;10.75;5.70;;;3.00;99.90;;;;;;5127296;27;20528;-50
2023/01/22 13:13:58;;;;;;;12.88;5.95;;;3.00;99.90;;;;;;5136045;27;20074;-49
2023/01/22 13:16:31;;;;;;;10.23;5.95;;;3.10;99.90;;;;;;5136105;27;20088;-49
2023/01/22 13:18:57;;;;;;;12.02;5.85;;;3.10;99.90;;;;;;5117423;27;20039;-49
2023/01/22 13:21:29;;;;;;;12.45;6.03;;;3.10;99.90;;;;;;5135834;27;20110;-52
2023/01/22 13:24:12;;;;;;;13.70;6.43;;;2.90;99.90;;;;;;5135651;27;20459;-52
2023/01/22 13:26:38;;;;;;;12.95;6.25;;;3.00;99.90;;;;;;5135781;27;20038;-49
2023/01/22 13:29:16;;;;;;;11.38;6.00;;;2.80;99.90;;;;;;5116768;27;20046;-50
2023/01/22 13:31:50;;;;;;;11.98;6.63;;;3.00;99.90;;;;;;5146548;27;20113;-50
2023/01/22 13:34:16;;;;;;;13.60;6.45;;;2.70;99.90;;;;;;5114962;28;20122;-54
2023/01/22 13:36:47;;;;;;;12.30;6.40;;;2.80;99.90;;;;;;5114860;28;20527;-49
2023/01/22 13:39:23;;;;;;;13.38;7.05;;;2.70;99.90;;;;;;5115161;28;20039;-49
2023/01/22 13:41:51;;;;;;;13.07;6.85;;;2.80;99.90;;;;;;5096459;28;20031;-51
2023/01/22 13:44:31;;;;;;;11.80;7.03;;;3.00;99.90;;;;;;5114128;28;20404;-53
2023/01/22 13:46:57;;;;;;;10.48;6.63;;;2.90;99.90;;;;;;5113988;28;20134;-50
2023/01/22 13:49:25;;;;;;;14.20;6.55;;;2.90;99.90;;;;;;5113784;28;20123;-52
2023/01/22 13:51:52;;;;;;;12.43;5.95;;;2.70;99.90;;;;;;5113956;28;20043;-53
2023/01/22 13:54:52;;;;;;;10.80;6.78;;;2.90;99.90;;;;;;5134151;27;20495;-52
2023/01/22 13:57:20;;;;;;;14.10;7.00;;;2.80;99.90;;;;;;5133997;27;20043;-48
2023/01/22 13:59:57;;;;;;;12.90;7.45;;;2.80;99.90;;;;;;5134203;27;20437;-49
2023/01/22 14:02:33;;;;;;;14.85;6.53;;;2.90;99.90;;;;;;5134161;27;20430;-50
2023/01/22 14:05:00;;;;;;;11.63;6.30;;;2.80;99.90;;;;;;5134217;27;20043;-51
2023/01/22 14:07:29;;;;;;;12.45;6.47;;;2.60;99.90;;;;;;5134022;27;20039;-51
2023/01/22 14:09:56;;;;;;;14.20;5.63;;;2.70;99.90;;;;;;5134077;27;20082;-52
2023/01/22 14:12:25;;;;;;;14.18;6.05;;;2.60;99.90;;;;;;5134281;27;20070;-51
2023/01/22 14:14:51;;;;;;;11.68;6.45;;;2.80;99.90;;;;;;5138689;27;20063;-52
2023/01/22 14:17:32;;;;;;;12.77;6.25;;;2.90;99.90;;;;;;5143412;27;20103;-52
2023/01/22 14:20:00;;;;;;;11.73;6.05;;;2.70;99.90;;;;;;5141589;27;20035;-50
2023/01/22 14:22:26;;;;;;;10.82;6.28;;;2.70;99.90;;;;;;5140331;27;20074;-52
2023/01/22 14:24:52;;;;;;;12.88;6.63;;;2.70;99.90;;;;;;5143356;27;20047;-53
2023/01/22 14:27:25;;;;;;;11.35;5.53;;;2.80;99.90;;;;;;5154370;27;20090;-52